createdAt,value
2022-11-09T00:01:18.227Z,97199.59
2022-11-09T00:06:10.218Z,97186.66
2022-11-09T00:11:07.193Z,97197.44
2022-11-09T00:16:00.405Z,97196.09
2022-11-09T00:20:52.049Z,97205.56
2022-11-09T00:25:43.758Z,97203.94
2022-11-09T00:30:35.472Z,97212.31
2022-11-09T00:35:27.690Z,97217.16
2022-11-09T00:40:19.315Z,97210.13
2022-11-09T00:45:11.051Z,97215.00
2022-11-09T00:50:02.870Z,97216.06
2022-11-09T00:54:55.140Z,97234.19
2022-11-09T00:59:47.109Z,97232.28
2022-11-09T01:04:39.027Z,97236.88
2022-11-09T01:09:30.842Z,97233.59
2022-11-09T01:14:22.833Z,97244.97
2022-11-09T01:19:14.464Z,97240.13
2022-11-09T01:24:06.439Z,97247.16
2022-11-09T01:28:58.209Z,97238.22
2022-11-09T01:33:50.063Z,97235.50
2022-11-09T01:38:42.893Z,97244.16
2022-11-09T01:43:35.640Z,97253.91
2022-11-09T01:48:58.059Z,97256.59
2022-11-09T01:53:53.032Z,97257.41
2022-11-09T01:58:50.637Z,97261.19
2022-11-09T02:04:05.916Z,97263.06
2022-11-09T02:09:21.002Z,97280.38
2022-11-09T02:14:13.582Z,97280.38
2022-11-09T02:19:05.407Z,97291.97
2022-11-09T02:23:57.871Z,97295.50
2022-11-09T02:28:49.591Z,97302.25
2022-11-09T02:34:06.958Z,97306.56
2022-11-09T02:38:58.817Z,97304.13
2022-11-09T02:43:52.813Z,97309.00
2022-11-09T02:48:44.460Z,97319.81
2022-11-09T02:53:36.298Z,97320.38
2022-11-09T02:58:27.913Z,97323.88
2022-11-09T03:03:19.919Z,97328.75
2022-11-09T03:08:11.830Z,97328.75
2022-11-09T03:13:03.551Z,97341.97
2022-11-09T03:17:56.206Z,97343.31
2022-11-09T03:22:47.844Z,97342.00
2022-11-09T03:27:39.665Z,97347.69
2022-11-09T03:32:31.285Z,97354.44
2022-11-09T03:37:22.920Z,97369.03
2022-11-09T03:42:14.824Z,97377.41
2022-11-09T03:47:06.478Z,97379.31
2022-11-09T03:51:58.308Z,97384.44
2022-11-09T03:56:50.104Z,97383.13
2022-11-09T04:01:41.991Z,97387.16
2022-11-09T04:06:33.825Z,97382.84
2022-11-09T04:11:25.657Z,97381.75
2022-11-09T04:16:17.424Z,97387.41
2022-11-09T04:21:09.441Z,97391.44
2022-11-09T04:26:01.131Z,97407.13
2022-11-09T04:30:52.953Z,97411.44
2022-11-09T04:35:44.802Z,97404.16
2022-11-09T04:40:37.220Z,97406.03
2022-11-09T04:45:29.097Z,97410.09
2022-11-09T04:50:20.914Z,97409.56
2022-11-09T04:55:12.765Z,97421.75
2022-11-09T05:00:05.171Z,97440.69
2022-11-09T05:04:56.994Z,97435.03
2022-11-09T05:09:48.698Z,97435.03
2022-11-09T05:14:40.405Z,97441.53
2022-11-09T05:19:32.594Z,97444.75
2022-11-09T05:24:24.325Z,97462.03
2022-11-09T05:29:15.905Z,97465.00
2022-11-09T05:34:08.252Z,97474.47
2022-11-09T05:39:00.656Z,97492.31
2022-11-09T05:43:53.282Z,97496.63
2022-11-09T05:48:45.489Z,97491.22
2022-11-09T05:53:40.048Z,97494.75
2022-11-09T05:58:36.730Z,97496.91
2022-11-09T06:03:28.431Z,97507.72
2022-11-09T06:08:20.123Z,97508.25
2022-11-09T06:13:11.839Z,97515.56
2022-11-09T06:18:03.722Z,97516.38
2022-11-09T06:23:03.417Z,97525.56
2022-11-09T06:27:55.840Z,97530.13
2022-11-09T06:32:47.525Z,97541.78
2022-11-09T06:37:39.283Z,97548.81
2022-11-09T06:42:31.123Z,97542.03
2022-11-09T06:47:22.949Z,97557.16
2022-11-09T06:52:14.755Z,97559.59
2022-11-09T06:57:06.455Z,97559.59
2022-11-09T07:02:01.431Z,97578.22
2022-11-09T07:06:53.619Z,97594.69
2022-11-09T07:11:45.291Z,97603.56
2022-11-09T07:16:37.594Z,97612.19
2022-11-09T07:21:29.401Z,97627.25
2022-11-09T07:26:21.009Z,97631.53
2022-11-09T07:31:13.233Z,97653.13
2022-11-09T07:36:06.306Z,97647.38
2022-11-09T07:41:02.085Z,97671.13
2022-11-09T07:45:53.692Z,97675.16
2022-11-09T07:50:45.685Z,97680.22
2022-11-09T07:55:38.582Z,97691.00
2022-11-09T08:00:32.420Z,97699.09
2022-11-09T08:05:24.393Z,97706.94
2022-11-09T08:10:16.302Z,97707.25
2022-11-09T08:15:08.832Z,97721.13
2022-11-09T08:20:00.469Z,97732.00
2022-11-09T08:24:52.787Z,97747.28
2022-11-09T08:29:45.820Z,97753.59
2022-11-09T08:34:38.964Z,97748.34
2022-11-09T08:39:30.968Z,97767.28
2022-11-09T08:44:23.709Z,97780.69
2022-11-09T08:49:16.466Z,97788.50
2022-11-09T08:54:09.064Z,97790.25
2022-11-09T08:59:00.620Z,97791.94
2022-11-09T09:03:52.506Z,97793.06
2022-11-09T09:08:44.574Z,97806.09
2022-11-09T09:13:41.954Z,97806.34
2022-11-09T09:18:35.056Z,97828.31
2022-11-09T09:23:26.628Z,97830.66
2022-11-09T09:28:18.452Z,97835.75
2022-11-09T09:33:10.299Z,97841.16
2022-11-09T09:38:01.983Z,97859.50
2022-11-09T09:42:55.532Z,97852.81
2022-11-09T09:48:11.716Z,97864.53
2022-11-09T09:53:24.239Z,97876.94
2022-11-09T09:58:28.414Z,97893.56
2022-11-09T10:03:21.202Z,97901.09
2022-11-09T10:08:19.791Z,97909.72
2022-11-09T10:13:33.306Z,97899.50
2022-11-09T10:18:46.766Z,97924.56
2022-11-09T10:23:53.315Z,97936.53
2022-11-09T10:29:14.349Z,97946.03
2022-11-09T10:34:13.361Z,97964.16
2022-11-09T10:39:05.791Z,97968.22
2022-11-09T10:43:57.521Z,97972.00
2022-11-09T10:48:49.127Z,97987.72
2022-11-09T10:53:40.797Z,97998.00
2022-11-09T10:58:37.818Z,97993.34
2022-11-09T11:03:32.195Z,97992.56
2022-11-09T11:08:34.746Z,98007.72
2022-11-09T11:13:26.537Z,98017.84
2022-11-09T11:18:26.639Z,98024.19
2022-11-09T11:23:21.240Z,98030.84
2022-11-09T11:28:22.270Z,98028.69
2022-11-09T11:33:16.517Z,98028.13
2022-11-09T11:38:26.759Z,98031.09
2022-11-09T11:43:43.512Z,98038.94
2022-11-09T11:48:40.836Z,98040.78
2022-11-09T11:53:48.364Z,98041.03
2022-11-09T11:58:39.847Z,98049.44
2022-11-09T12:03:52.445Z,98056.22
2022-11-09T12:08:55.921Z,98068.13
2022-11-09T12:13:53.202Z,98065.34
2022-11-09T12:19:17.455Z,98059.84
2022-11-09T12:24:32.425Z,98057.66
2022-11-09T12:29:38.013Z,98068.84
2022-11-09T12:34:57.207Z,98054.69
2022-11-09T12:39:53.099Z,98057.78
2022-11-09T12:45:15.630Z,98066.06
2022-11-09T12:50:14.704Z,98084.88
2022-11-09T12:55:07.539Z,98092.25
2022-11-09T13:00:01.143Z,98108.09
2022-11-09T13:05:05.569Z,98104.53
2022-11-09T13:09:59.855Z,98101.22
2022-11-09T13:14:51.533Z,98102.56
2022-11-09T13:19:43.323Z,98115.28
2022-11-09T13:24:54.741Z,98128.59
2022-11-09T13:29:56.051Z,98138.47
2022-11-09T13:34:49.742Z,98146.94
2022-11-09T13:39:42.604Z,98156.78
2022-11-09T13:44:37.695Z,98159.81
2022-11-09T13:49:52.161Z,98161.75
2022-11-09T13:54:44.388Z,98163.09
2022-11-09T13:59:47.445Z,98177.25
2022-11-09T14:04:43.883Z,98178.59
2022-11-09T14:09:56.535Z,98186.25
2022-11-09T14:14:51.109Z,98204.50
2022-11-09T14:20:07.944Z,98212.66
2022-11-09T14:25:15.355Z,98217.53
2022-11-09T14:30:21.066Z,98222.44
2022-11-09T14:35:33.664Z,98231.16
2022-11-09T14:40:28.458Z,98246.38
2022-11-09T14:45:20.891Z,98254.50
2022-11-09T14:50:25.370Z,98269.72
2022-11-09T14:55:18.835Z,98272.38
2022-11-09T15:00:28.101Z,98277.75
2022-11-09T15:05:40.853Z,98280.69
2022-11-09T15:10:33.272Z,98276.56
2022-11-09T15:15:27.974Z,98285.44
2022-11-09T15:20:19.909Z,98290.59
2022-11-09T15:25:35.478Z,98291.13
2022-11-09T15:30:35.003Z,98307.13
2022-11-09T15:35:26.942Z,98309.28
2022-11-09T15:40:22.112Z,98316.91
2022-11-09T15:45:16.516Z,98318.81
2022-11-09T15:50:17.874Z,98323.31
2022-11-09T15:55:16.257Z,98346.09
2022-11-09T16:00:16.584Z,98340.56
2022-11-09T16:05:11.626Z,98351.38
2022-11-09T16:10:04.796Z,98371.09
2022-11-09T16:14:56.722Z,98374.78
2022-11-09T16:19:48.337Z,98376.56
2022-11-09T16:24:40.580Z,98397.34
2022-11-09T16:29:33.830Z,98401.59
2022-11-09T16:34:25.684Z,98412.31
2022-11-09T16:39:17.401Z,98405.38
2022-11-09T16:44:09.454Z,98404.47
2022-11-09T16:49:02.727Z,98415.53
2022-11-09T16:53:54.446Z,98420.28
2022-11-09T16:58:46.154Z,98435.94
2022-11-09T17:03:37.903Z,98452.16
2022-11-09T17:08:29.927Z,98449.59
2022-11-09T17:13:21.599Z,98450.31
2022-11-09T17:18:13.503Z,98460.84
2022-11-09T17:23:05.442Z,98467.78
2022-11-09T17:27:57.078Z,98474.81
2022-11-09T17:32:48.785Z,98474.69
2022-11-09T17:37:40.323Z,98472.72
2022-11-09T17:42:34.648Z,98475.19
2022-11-09T17:47:26.199Z,98471.34
2022-11-09T17:52:18.030Z,98491.88
2022-11-09T17:57:09.708Z,98494.81
2022-11-09T18:02:01.515Z,98499.31
2022-11-09T18:06:53.408Z,98511.22
2022-11-09T18:11:46.470Z,98512.53
2022-11-09T18:16:40.340Z,98527.38
2022-11-09T18:21:35.430Z,98531.31
2022-11-09T18:26:28.779Z,98542.63
2022-11-09T18:31:22.596Z,98547.13
2022-11-09T18:36:18.034Z,98570.91
2022-11-09T18:41:14.118Z,98562.22
2022-11-09T18:46:11.588Z,98568.91
2022-11-09T18:51:05.869Z,98586.50
2022-11-09T18:56:06.486Z,98595.66
2022-11-09T19:01:00.250Z,98577.75
2022-11-09T19:05:52.377Z,98578.94
2022-11-09T19:10:44.162Z,98564.34
2022-11-09T19:15:39.970Z,98576.94
2022-11-09T19:20:33.015Z,98579.47
2022-11-09T19:25:24.765Z,98568.06
2022-11-09T19:30:16.667Z,98597.88
2022-11-09T19:35:08.793Z,98595.03
2022-11-09T19:40:00.724Z,98586.81
2022-11-09T19:44:56.438Z,98595.34
2022-11-09T19:49:48.422Z,98601.94
2022-11-09T19:54:40.540Z,98597.00
2022-11-09T19:59:32.186Z,98603.38
2022-11-09T20:04:23.943Z,98617.84
2022-11-09T20:09:15.658Z,98639.97
2022-11-09T20:14:08.743Z,98640.78
2022-11-09T20:19:03.156Z,98641.84
2022-11-09T20:23:56.480Z,98636.44
2022-11-09T20:28:48.108Z,98633.72
2022-11-09T20:33:40.175Z,98632.91
2022-11-09T20:38:32.643Z,98646.22
2022-11-09T20:43:25.912Z,98644.78
2022-11-09T20:48:46.409Z,98647.25
2022-11-09T20:53:29.464Z,98647.63
2022-11-09T20:58:21.515Z,98660.94
2022-11-09T21:03:13.495Z,98662.56
2022-11-09T21:08:05.122Z,98675.63
2022-11-09T21:12:56.909Z,98665.16
2022-11-09T21:17:49.042Z,98667.97
2022-11-09T21:23:03.441Z,98663.72
2022-11-09T21:28:14.002Z,98656.19
2022-11-09T21:33:05.710Z,98679.59
2022-11-09T21:37:57.841Z,98679.13
2022-11-09T21:42:49.438Z,98678.88
2022-11-09T21:47:41.108Z,98675.72
2022-11-09T21:52:32.810Z,98689.81
2022-11-09T21:57:24.422Z,98681.47
2022-11-09T22:02:16.083Z,98692.91
2022-11-09T22:07:07.903Z,98681.22
2022-11-09T22:12:18.283Z,98684.53
2022-11-09T22:17:11.999Z,98683.22
2022-11-09T22:22:03.707Z,98690.88
2022-11-09T22:26:55.305Z,98688.53
2022-11-09T22:31:46.941Z,98702.16
2022-11-09T22:36:38.579Z,98697.19
2022-11-09T22:41:30.284Z,98697.06
2022-11-09T22:46:22.329Z,98703.66
2022-11-09T22:51:16.409Z,98702.31
2022-11-09T22:56:10.391Z,98708.69
2022-11-09T23:01:11.995Z,98704.69
2022-11-09T23:06:06.486Z,98703.13
2022-11-09T23:10:58.342Z,98710.78
2022-11-09T23:16:00.552Z,98711.97
2022-11-09T23:20:52.143Z,98719.03
2022-11-09T23:26:03.959Z,98728.31
2022-11-09T23:30:59.245Z,98731.38
2022-11-09T23:35:50.964Z,98716.75
2022-11-09T23:40:42.580Z,98733.63
2022-11-09T23:45:35.824Z,98736.06
2022-11-09T23:50:27.678Z,98741.47
2022-11-09T23:55:19.341Z,98733.94
